Aigaion — SYMC — position and weather

sailwx.info

Track history (hours):
 
Tides and Currents Weather Stations Pressure Air Temp Water Temp Dewpoint Dewpoint Depression Visibility Wind Speed Wind Dir Waves Ship Positions

Aigaion

Last reported at 2015-Apr-18 22:33 UTC. Time now 2015-Apr-21 13:08 UTC.
Position N 19°57' E 120°33'.

Length 289 m; draft 11.2 m.

Type: Cargo ship. MMSI: 240174000.

Date/timePositionNaut miles runAvg speedWind from/ knotsBaromVisibWave heightAir tempDewpointWater temp
2015-Apr-18 22:33N 19°57' E 120°33'125 8.9
2015-Apr-18 08:29N 21°56' E 121°17'6 6.9
2015-Apr-18 07:33N 22°02' E 121°20'  
2015-Apr-15 19:32N 29°17' E 123°50'7 6.9
2015-Apr-15 18:33N 29°24' E 123°52'7 6.8
2015-Apr-15 17:33N 29°30' E 123°54'7 6.9
2015-Apr-15 16:33N 29°37' E 123°56'7 6.9
2015-Apr-15 15:33N 29°44' E 123°58'9 6.7
2015-Apr-15 14:13N 29°53' E 123°59'5 6.5
2015-Apr-15 13:29N 29°57' E 123°59'6 6.2
2015-Apr-15 12:33N 30°03' E 123°59'7 6.1
2015-Apr-15 11:29N 30°10' E 123°59'74 7.9
2015-Apr-15 02:04N 31°24' E 123°59'18 6.6
2015-Apr-14 23:21N 31°42' E 123°60'5 6.0
2015-Apr-14 22:33N 31°46' E 123°60'7 6.5
2015-Apr-14 21:33N 31°53' E 124°00'7 7.1
2015-Apr-14 20:32N 32°00' E 124°00'346 7.4
2015-Apr-12 21:32N 37°45' E 123°28'8 7.5
2015-Apr-12 20:24N 37°52' E 123°21'6 7.3
2015-Apr-12 19:33N 37°56' E 123°15'16 6.8
2015-Apr-12 17:07N 38°01' E 122°55'4 6.5
2015-Apr-12 16:33N 38°02' E 122°51'8 6.8
2015-Apr-12 15:20N 38°04' E 122°41'6 7.1
2015-Apr-12 14:32N 38°05' E 122°34'7 7.1
2015-Apr-12 13:33N 38°08' E 122°25'7 7.1
2015-Apr-12 12:33N 38°09' E 122°17'7 6.8
2015-Apr-12 11:33N 38°13' E 122°09'7 6.9
2015-Apr-12 10:33N 38°15' E 122°01'25 6.2
2015-Apr-12 06:29N 38°22' E 121°30'15 6.4
2015-Apr-12 04:13N 38°26' E 121°12'152 7.0
2015-Apr-11 06:33N 38°56' E 118°02'1111.5
2015-Apr-11 05:33N 38°58' E 117°47'0 0.2
2015-Apr-11 04:31N 38°58' E 117°48'0 0.0
2015-Apr-11 03:19N 38°58' E 117°48'0 0.0
2015-Apr-11 02:31N 38°58' E 117°48'0 0.0
2015-Apr-11 01:31N 38°58' E 117°48'0 0.0
2015-Apr-11 00:31N 38°58' E 117°48'0 0.0
2015-Apr-10 23:31N 38°58' E 117°48'0 0.0
2015-Apr-10 22:31N 38°58' E 117°48'0 0.0
2015-Apr-10 21:31N 38°58' E 117°48'0 0.0
2015-Apr-10 20:25N 38°58' E 117°48'0 0.0
2015-Apr-10 19:31N 38°58' E 117°48'0 0.0
2015-Apr-10 18:31N 38°58' E 117°48'0 0.0
2015-Apr-10 17:31N 38°58' E 117°48'0 0.0
2015-Apr-10 16:31N 38°58' E 117°48'0 0.0
2015-Apr-10 15:31N 38°58' E 117°48'0 0.0
2015-Apr-10 14:31N 38°58' E 117°48'0 0.0
2015-Apr-10 13:31N 38°58' E 117°48'0 0.0
2015-Apr-10 12:25N 38°58' E 117°48'0 0.0
2015-Apr-10 11:31N 38°58' E 117°48'0 0.0
2015-Apr-10 10:31N 38°58' E 117°48'0 0.0
2015-Apr-10 09:31N 38°58' E 117°48'0 0.0
2015-Apr-10 08:31N 38°58' E 117°48'0 0.0
2015-Apr-10 07:31N 38°58' E 117°48'0 0.0
2015-Apr-10 06:31N 38°58' E 117°48'0 0.0
2015-Apr-10 05:31N 38°58' E 117°48'0 0.0
2015-Apr-10 04:31N 38°58' E 117°48'0 0.0
2015-Apr-10 03:31N 38°58' E 117°48'0 0.0
2015-Apr-10 02:31N 38°58' E 117°48'0 0.0
2015-Apr-10 01:31N 38°58' E 117°48'0 0.0
2015-Apr-10 00:25N 38°58' E 117°48'0 0.0
2015-Apr-09 23:31N 38°58' E 117°48'0 0.0
2015-Apr-09 22:31N 38°58' E 117°48'0 0.0
2015-Apr-09 21:31N 38°58' E 117°48'0 0.0
2015-Apr-09 20:31N 38°58' E 117°48'0 0.0
2015-Apr-09 19:31N 38°58' E 117°48'0 0.0
2015-Apr-09 18:31N 38°58' E 117°48'0 0.0
2015-Apr-09 17:33N 38°58' E 117°48'0 0.0
2015-Apr-09 16:33N 38°58' E 117°48'0 0.0
2015-Apr-09 15:33N 38°58' E 117°48'0 0.0
2015-Apr-09 14:33N 38°58' E 117°48'0 0.0
2015-Apr-09 13:33N 38°58' E 117°48'0 0.0
2015-Apr-09 12:33N 38°58' E 117°48'0 0.0
2015-Apr-09 11:33N 38°58' E 117°48'0 0.0
2015-Apr-09 10:33N 38°58' E 117°48'0 0.0
2015-Apr-09 09:33N 38°58' E 117°48'3 3.2
2015-Apr-09 08:33N 38°58' E 117°52'10 9.9
2015-Apr-09 07:33N 38°56' E 118°04'  
Track history (hours):
 
Tides and Currents Weather Stations Pressure Air Temp Water Temp Dewpoint Dewpoint Depression Visibility Wind Speed Wind Dir Waves Ship Positions

Aigaion

Last reported at 2015-Apr-18 22:33 UTC. Time now 2015-Apr-21 13:08 UTC.
Position N 19°57' E 120°33'.

Length 289 m; draft 11.2 m.

Type: Cargo ship. MMSI: 240174000.

Date/timePositionNaut miles runAvg speedWind from/ knotsBaromVisibWave heightAir tempDewpointWater temp
2015-Apr-18 22:33N 19°57' E 120°33'125 8.9
2015-Apr-18 08:29N 21°56' E 121°17'6 6.9
2015-Apr-18 07:33N 22°02' E 121°20'  
2015-Apr-15 19:32N 29°17' E 123°50'7 6.9
2015-Apr-15 18:33N 29°24' E 123°52'7 6.8
2015-Apr-15 17:33N 29°30' E 123°54'7 6.9
2015-Apr-15 16:33N 29°37' E 123°56'7 6.9
2015-Apr-15 15:33N 29°44' E 123°58'9 6.7
2015-Apr-15 14:13N 29°53' E 123°59'5 6.5
2015-Apr-15 13:29N 29°57' E 123°59'6 6.2
2015-Apr-15 12:33N 30°03' E 123°59'7 6.1
2015-Apr-15 11:29N 30°10' E 123°59'74 7.9
2015-Apr-15 02:04N 31°24' E 123°59'18 6.6
2015-Apr-14 23:21N 31°42' E 123°60'5 6.0
2015-Apr-14 22:33N 31°46' E 123°60'7 6.5
2015-Apr-14 21:33N 31°53' E 124°00'7 7.1
2015-Apr-14 20:32N 32°00' E 124°00'346 7.4
2015-Apr-12 21:32N 37°45' E 123°28'8 7.5
2015-Apr-12 20:24N 37°52' E 123°21'6 7.3
2015-Apr-12 19:33N 37°56' E 123°15'16 6.8
2015-Apr-12 17:07N 38°01' E 122°55'4 6.5
2015-Apr-12 16:33N 38°02' E 122°51'8 6.8
2015-Apr-12 15:20N 38°04' E 122°41'6 7.1
2015-Apr-12 14:32N 38°05' E 122°34'7 7.1
2015-Apr-12 13:33N 38°08' E 122°25'7 7.1
2015-Apr-12 12:33N 38°09' E 122°17'7 6.8
2015-Apr-12 11:33N 38°13' E 122°09'7 6.9
2015-Apr-12 10:33N 38°15' E 122°01'25 6.2
2015-Apr-12 06:29N 38°22' E 121°30'15 6.4
2015-Apr-12 04:13N 38°26' E 121°12'152 7.0
2015-Apr-11 06:33N 38°56' E 118°02'1111.5
2015-Apr-11 05:33N 38°58' E 117°47'0 0.2
2015-Apr-11 04:31N 38°58' E 117°48'0 0.0
2015-Apr-11 03:19N 38°58' E 117°48'0 0.0
2015-Apr-11 02:31N 38°58' E 117°48'0 0.0
2015-Apr-11 01:31N 38°58' E 117°48'0 0.0
2015-Apr-11 00:31N 38°58' E 117°48'0 0.0
2015-Apr-10 23:31N 38°58' E 117°48'0 0.0
2015-Apr-10 22:31N 38°58' E 117°48'0 0.0
2015-Apr-10 21:31N 38°58' E 117°48'0 0.0
2015-Apr-10 20:25N 38°58' E 117°48'0 0.0
2015-Apr-10 19:31N 38°58' E 117°48'0 0.0
2015-Apr-10 18:31N 38°58' E 117°48'0 0.0
2015-Apr-10 17:31N 38°58' E 117°48'0 0.0
2015-Apr-10 16:31N 38°58' E 117°48'0 0.0
2015-Apr-10 15:31N 38°58' E 117°48'0 0.0
2015-Apr-10 14:31N 38°58' E 117°48'0 0.0
2015-Apr-10 13:31N 38°58' E 117°48'0 0.0
2015-Apr-10 12:25N 38°58' E 117°48'0 0.0
2015-Apr-10 11:31N 38°58' E 117°48'0 0.0
2015-Apr-10 10:31N 38°58' E 117°48'0 0.0
2015-Apr-10 09:31N 38°58' E 117°48'0 0.0
2015-Apr-10 08:31N 38°58' E 117°48'0 0.0
2015-Apr-10 07:31N 38°58' E 117°48'0 0.0
2015-Apr-10 06:31N 38°58' E 117°48'0 0.0
2015-Apr-10 05:31N 38°58' E 117°48'0 0.0
2015-Apr-10 04:31N 38°58' E 117°48'0 0.0
2015-Apr-10 03:31N 38°58' E 117°48'0 0.0
2015-Apr-10 02:31N 38°58' E 117°48'0 0.0
2015-Apr-10 01:31N 38°58' E 117°48'0 0.0
2015-Apr-10 00:25N 38°58' E 117°48'0 0.0
2015-Apr-09 23:31N 38°58' E 117°48'0 0.0
2015-Apr-09 22:31N 38°58' E 117°48'0 0.0
2015-Apr-09 21:31N 38°58' E 117°48'0 0.0
2015-Apr-09 20:31N 38°58' E 117°48'0 0.0
2015-Apr-09 19:31N 38°58' E 117°48'0 0.0
2015-Apr-09 18:31N 38°58' E 117°48'0 0.0
2015-Apr-09 17:33N 38°58' E 117°48'0 0.0
2015-Apr-09 16:33N 38°58' E 117°48'0 0.0
2015-Apr-09 15:33N 38°58' E 117°48'0 0.0
2015-Apr-09 14:33N 38°58' E 117°48'0 0.0
2015-Apr-09 13:33N 38°58' E 117°48'0 0.0
2015-Apr-09 12:33N 38°58' E 117°48'0 0.0
2015-Apr-09 11:33N 38°58' E 117°48'0 0.0
2015-Apr-09 10:33N 38°58' E 117°48'0 0.0
2015-Apr-09 09:33N 38°58' E 117°48'3 3.2
2015-Apr-09 08:33N 38°58' E 117°52'10 9.9
2015-Apr-09 07:33N 38°56' E 118°04'  

Dump ship's entire track history